PH-0146 weather

Asian Development Bank Heliport
Makati (Manila), Philippines

Public forecast

Using degrees Celsius for public forecast. Weather courtesy of forecast.io.

METAR (pilot weather report)

Closest report is Ninoy Aquino International Airport, 5.3 nm (9.8 km) SSW. Retrieved 2019/09/19 09:00 UTC (27 minutes ago):

RPLL 190900Z 25011KT 9000 SCT018 OVC080 27/25 Q1007 NOSIG RMK A2974

TAF (pilot weather forecast)

Closest forecast is Ninoy Aquino International Airport, 5.3 nm (9.8 km) SSW. Retrieved 2019/09/19 06:00 UTC (3 hours ago):

TAF RPLL 190500Z 1906/2012 24010KT 9999 SCT022 BKN090 TX30/1906Z TN25/1921Z TEMPO 1906/1912 27019KT 7000 -RA SCT020 OVC080 TEMPO 1912/1918 23010KT 4000 +RA SCT020 OVC070